createdAt,value
2024-01-05T00:00:31.151Z,96.306
2024-01-05T00:01:31.011Z,96.289
2024-01-05T00:02:30.374Z,96.312
2024-01-05T00:03:30.937Z,96.253
2024-01-05T00:04:30.818Z,96.331
2024-01-05T00:05:31.413Z,96.304
2024-01-05T00:06:31.096Z,96.356
2024-01-05T00:07:30.643Z,96.371
2024-01-05T00:08:30.870Z,96.411
2024-01-05T00:09:31.461Z,96.399
2024-01-05T00:10:31.066Z,96.459
2024-01-05T00:11:31.306Z,96.476
2024-01-05T00:12:30.744Z,96.361
2024-01-05T00:13:31.148Z,96.390
2024-01-05T00:14:30.374Z,96.419
2024-01-05T00:15:31.080Z,96.462
2024-01-05T00:16:30.845Z,96.443
2024-01-05T00:17:31.160Z,96.468
2024-01-05T00:19:31.057Z,96.558
2024-01-05T00:20:31.347Z,96.411
2024-01-05T00:21:31.089Z,96.327
2024-01-05T00:22:30.483Z,96.461
2024-01-05T00:23:30.671Z,96.417
2024-01-05T00:24:31.167Z,96.495
2024-01-05T00:25:30.823Z,96.493
2024-01-05T00:26:31.055Z,96.619
2024-01-05T00:27:31.855Z,96.567
2024-01-05T00:28:31.250Z,96.676
2024-01-05T00:29:30.456Z,96.640
2024-01-05T00:30:31.181Z,96.647
2024-01-05T00:32:30.685Z,96.687
2024-01-05T00:33:31.749Z,96.632
2024-01-05T00:34:31.583Z,96.642
2024-01-05T00:35:30.748Z,96.800
2024-01-05T00:36:31.200Z,96.865
2024-01-05T00:37:30.850Z,96.924
2024-01-05T00:38:31.093Z,96.937
2024-01-05T00:39:30.500Z,96.924
2024-01-05T00:40:30.964Z,96.914
2024-01-05T00:41:31.178Z,96.922
2024-01-05T00:42:30.755Z,96.941
2024-01-05T00:43:31.107Z,96.935
2024-01-05T00:44:30.314Z,97.080
2024-01-05T00:45:30.660Z,97.115
2024-01-05T00:46:31.026Z,97.103
2024-01-05T00:47:31.459Z,96.983
2024-01-05T00:48:31.570Z,97.168
2024-01-05T00:49:31.607Z,97.071
2024-01-05T00:50:31.334Z,97.025
2024-01-05T00:52:31.357Z,97.157
2024-01-05T00:53:30.725Z,97.195
2024-01-05T00:54:31.195Z,97.285
2024-01-05T00:56:31.222Z,97.206
2024-01-05T00:57:30.690Z,97.239
2024-01-05T00:58:31.144Z,97.182
2024-01-05T00:59:30.404Z,97.326
2024-01-05T01:00:31.396Z,97.250
2024-01-05T01:01:31.505Z,97.349
2024-01-05T01:02:30.836Z,97.296
2024-01-05T01:03:31.628Z,97.189
2024-01-05T01:04:32.029Z,97.029
2024-01-05T01:05:31.136Z,97.056
2024-01-05T01:06:30.566Z,97.067
2024-01-05T01:07:31.277Z,96.928
2024-01-05T01:08:30.719Z,96.977
2024-01-05T01:09:31.236Z,97.035
2024-01-05T01:10:30.734Z,96.974
2024-01-05T01:11:34.158Z,96.962
2024-01-05T01:14:31.194Z,96.943
2024-01-05T01:15:30.636Z,96.897
2024-01-05T01:16:31.056Z,96.972
2024-01-05T01:17:31.749Z,97.000
2024-01-05T01:18:30.965Z,96.964
2024-01-05T01:19:31.261Z,97.038
2024-01-05T01:20:30.840Z,96.974
2024-01-05T01:21:31.193Z,96.995
2024-01-05T01:23:30.936Z,97.145
2024-01-05T01:24:31.542Z,97.016
2024-01-05T01:25:30.958Z,96.985
2024-01-05T01:26:31.210Z,96.949
2024-01-05T01:27:30.790Z,97.061
2024-01-05T01:28:31.216Z,97.056
2024-01-05T01:29:30.464Z,97.067
2024-01-05T01:30:31.256Z,96.937
2024-01-05T01:31:31.009Z,96.976
2024-01-05T01:33:31.772Z,97.035
2024-01-05T01:34:30.830Z,96.996
2024-01-05T01:35:31.466Z,97.040
2024-01-05T01:36:31.064Z,97.086
2024-01-05T01:37:30.620Z,97.080
2024-01-05T01:38:30.961Z,97.124
2024-01-05T01:39:31.648Z,97.235
2024-01-05T01:40:31.068Z,97.227
2024-01-05T01:41:31.463Z,97.264
2024-01-05T01:42:31.011Z,97.243
2024-01-05T01:43:31.396Z,97.195
2024-01-05T01:44:30.711Z,97.187
2024-01-05T01:45:31.243Z,97.250
2024-01-05T01:46:30.723Z,97.201
2024-01-05T01:47:31.060Z,97.283
2024-01-05T01:48:31.339Z,97.271
2024-01-05T01:49:31.588Z,97.346
2024-01-05T01:50:31.004Z,97.298
2024-01-05T01:51:31.506Z,97.407
2024-01-05T01:52:31.088Z,97.410
2024-01-05T01:53:30.392Z,97.285
2024-01-05T01:54:34.214Z,97.290
2024-01-05T01:57:30.763Z,97.246
2024-01-05T01:58:31.103Z,97.262
2024-01-05T01:59:31.286Z,97.199
2024-01-05T02:00:30.797Z,97.099
2024-01-05T02:01:31.393Z,97.065
2024-01-05T02:02:30.624Z,97.061
2024-01-05T02:03:31.164Z,96.916
2024-01-05T02:04:31.571Z,96.943
2024-01-05T02:05:31.596Z,96.928
2024-01-05T02:06:31.198Z,96.924
2024-01-05T02:07:30.576Z,96.882
2024-01-05T02:08:30.873Z,96.859
2024-01-05T02:09:31.512Z,96.888
2024-01-05T02:10:30.870Z,96.888
2024-01-05T02:11:31.137Z,96.787
2024-01-05T02:14:57.419Z,96.604
2024-01-05T02:16:46.521Z,96.596
2024-01-05T02:17:45.374Z,96.548
2024-01-05T02:18:45.896Z,96.619
2024-01-05T02:19:44.740Z,96.552
2024-01-05T02:20:44.425Z,96.554
2024-01-05T02:21:44.919Z,96.481
2024-01-05T02:22:45.174Z,96.434
2024-01-05T02:23:44.462Z,96.426
2024-01-05T02:24:44.811Z,96.422
2024-01-05T02:25:45.143Z,96.447
2024-01-05T02:26:45.618Z,96.426
2024-01-05T02:28:45.007Z,96.415
2024-01-05T02:29:45.291Z,96.415
2024-01-05T02:30:44.975Z,96.445
2024-01-05T02:31:44.699Z,96.476
2024-01-05T02:32:45.128Z,96.449
2024-01-05T02:33:45.494Z,96.497
2024-01-05T02:34:44.579Z,96.455
2024-01-05T02:35:45.052Z,96.403
2024-01-05T02:36:45.701Z,96.468
2024-01-05T02:37:45.452Z,96.375
2024-01-05T02:38:44.620Z,96.504
2024-01-05T02:39:45.011Z,96.405
2024-01-05T02:40:45.333Z,96.497
2024-01-05T02:41:44.663Z,96.388
2024-01-05T02:42:45.007Z,96.398
2024-01-05T02:43:45.342Z,96.512
2024-01-05T02:44:44.567Z,96.537
2024-01-05T02:45:45.231Z,96.579
2024-01-05T02:46:45.133Z,96.520
2024-01-05T02:47:44.668Z,96.487
2024-01-05T02:48:45.320Z,96.556
2024-01-05T02:49:45.822Z,96.577
2024-01-05T02:50:44.500Z,96.693
2024-01-05T02:51:45.193Z,96.720
2024-01-05T02:52:44.510Z,96.667
2024-01-05T02:53:44.839Z,96.770
2024-01-05T02:54:45.228Z,96.693
2024-01-05T02:55:44.455Z,96.890
2024-01-05T02:56:45.329Z,96.922
2024-01-05T02:58:45.251Z,96.808
2024-01-05T03:00:45.344Z,96.878
2024-01-05T03:01:45.320Z,96.861
2024-01-05T03:02:44.459Z,96.924
2024-01-05T03:03:46.574Z,96.924
2024-01-05T03:04:45.097Z,96.890
2024-01-05T03:05:45.169Z,96.859
2024-01-05T03:06:45.489Z,96.846
2024-01-05T03:09:44.630Z,96.815
2024-01-05T03:10:44.908Z,96.846
2024-01-05T03:11:45.189Z,96.909
2024-01-05T03:12:44.485Z,96.758
2024-01-05T03:13:44.850Z,96.758
2024-01-05T03:14:45.211Z,96.811
2024-01-05T03:15:44.803Z,96.754
2024-01-05T03:16:45.833Z,96.741
2024-01-05T03:17:45.680Z,96.651
2024-01-05T03:18:45.593Z,96.539
2024-01-05T03:19:45.789Z,96.499
2024-01-05T03:20:45.352Z,96.535
2024-01-05T03:21:44.745Z,96.562
2024-01-05T03:22:44.988Z,96.617
2024-01-05T03:23:45.296Z,96.562
2024-01-05T03:27:45.568Z,96.455
2024-01-05T03:30:44.855Z,96.241
2024-01-05T03:31:45.395Z,96.150
2024-01-05T03:32:45.074Z,96.152
2024-01-05T03:33:45.339Z,96.104
2024-01-05T03:34:45.530Z,96.060
2024-01-05T03:35:44.816Z,96.050
2024-01-05T03:36:46.541Z,96.001
2024-01-05T03:37:45.064Z,95.942
2024-01-05T03:38:45.547Z,95.917
2024-01-05T03:39:44.942Z,95.904
2024-01-05T03:40:45.256Z,95.911
2024-01-05T03:41:44.541Z,95.904
2024-01-05T03:42:45.390Z,95.869
2024-01-05T03:43:44.568Z,95.839
2024-01-05T03:44:44.893Z,95.909
2024-01-05T03:45:45.584Z,95.808
2024-01-05T03:46:45.360Z,95.904
2024-01-05T03:48:45.469Z,95.921
2024-01-05T03:49:46.033Z,95.968
2024-01-05T03:50:44.505Z,95.972
2024-01-05T03:51:44.954Z,96.029
2024-01-05T03:52:45.272Z,96.079
2024-01-05T03:53:44.485Z,95.997
2024-01-05T03:54:44.808Z,96.066
2024-01-05T03:55:45.084Z,96.094
2024-01-05T03:56:45.129Z,96.050
2024-01-05T03:58:44.889Z,96.129
2024-01-05T03:59:45.164Z,96.312
2024-01-05T04:00:45.152Z,96.249
2024-01-05T04:02:45.534Z,96.300
2024-01-05T04:03:46.150Z,96.293
2024-01-05T04:04:45.315Z,96.346
2024-01-05T04:05:45.468Z,96.285
2024-01-05T04:06:46.562Z,96.277
2024-01-05T04:07:44.439Z,96.354
2024-01-05T04:08:44.673Z,96.386
2024-01-05T04:09:45.048Z,96.468
2024-01-05T04:10:45.461Z,96.573
2024-01-05T04:11:44.779Z,96.607
2024-01-05T04:12:45.320Z,96.497
2024-01-05T04:13:44.673Z,96.417
2024-01-05T04:14:44.884Z,96.399
2024-01-05T04:15:46.883Z,96.394
2024-01-05T04:16:45.878Z,96.230
2024-01-05T04:17:44.586Z,96.266
2024-01-05T04:18:45.529Z,96.333
2024-01-05T04:19:45.846Z,96.281
2024-01-05T04:21:44.774Z,96.193
2024-01-05T04:22:45.036Z,96.090
2024-01-05T04:23:45.358Z,96.155
2024-01-05T04:24:44.821Z,96.138
2024-01-05T04:25:45.043Z,96.108
2024-01-05T04:26:45.950Z,96.173
2024-01-05T04:27:44.524Z,96.123
2024-01-05T04:28:44.854Z,96.035
2024-01-05T04:29:45.144Z,96.014
2024-01-05T04:30:44.953Z,95.955
2024-01-05T04:32:45.471Z,96.018
2024-01-05T04:33:45.757Z,96.007
2024-01-05T04:34:44.885Z,95.991
2024-01-05T04:35:44.404Z,95.913
2024-01-05T04:36:44.976Z,96.001
2024-01-05T04:37:44.700Z,95.974
2024-01-05T04:38:45.164Z,95.907
2024-01-05T04:39:44.760Z,96.020
2024-01-05T04:40:45.084Z,96.018
2024-01-05T04:41:44.390Z,95.953
2024-01-05T04:42:44.978Z,96.016
2024-01-05T04:43:45.254Z,96.022
2024-01-05T04:44:44.498Z,95.925
2024-01-05T04:45:45.271Z,95.967
2024-01-05T04:46:45.868Z,95.898
2024-01-05T04:47:45.411Z,95.997
2024-01-05T04:48:45.404Z,96.039
2024-01-05T04:50:44.530Z,96.003
2024-01-05T04:51:48.298Z,95.951
2024-01-05T04:52:44.730Z,96.007
2024-01-05T04:53:45.060Z,95.997
2024-01-05T04:54:44.563Z,96.043
2024-01-05T04:55:44.804Z,96.020
2024-01-05T04:56:45.082Z,96.005
2024-01-05T04:57:47.927Z,96.056
2024-01-05T04:58:45.265Z,96.136
2024-01-05T04:59:44.469Z,96.184
2024-01-05T05:00:45.256Z,96.098
2024-01-05T05:01:45.663Z,96.197
2024-01-05T05:02:45.439Z,96.176
2024-01-05T05:03:45.442Z,96.237
2024-01-05T05:04:45.942Z,96.165
2024-01-05T05:05:45.478Z,96.150
2024-01-05T05:06:45.494Z,96.155
2024-01-05T05:07:44.738Z,96.077
2024-01-05T05:08:45.088Z,96.108
2024-01-05T05:09:44.541Z,96.161
2024-01-05T05:10:44.982Z,96.190
2024-01-05T05:12:44.863Z,96.039
2024-01-05T05:13:45.078Z,96.182
2024-01-05T05:14:45.317Z,96.073
2024-01-05T05:15:45.081Z,96.132
2024-01-05T05:17:45.088Z,96.003
2024-01-05T05:18:46.130Z,96.070
2024-01-05T05:19:45.128Z,96.131
2024-01-05T05:20:44.764Z,96.241
2024-01-05T05:21:45.982Z,96.256
2024-01-05T05:22:44.457Z,96.371
2024-01-05T05:23:44.701Z,96.358
2024-01-05T05:24:45.089Z,96.314
2024-01-05T05:25:45.529Z,96.237
2024-01-05T05:27:45.435Z,96.249
2024-01-05T05:28:44.714Z,96.207
2024-01-05T05:29:44.923Z,96.079
2024-01-05T05:30:45.890Z,96.157
2024-01-05T05:31:45.214Z,96.132
2024-01-05T05:33:45.242Z,96.090
2024-01-05T05:34:45.580Z,96.094
2024-01-05T05:35:45.152Z,96.085
2024-01-05T05:36:44.598Z,96.031
2024-01-05T05:37:44.826Z,95.925
2024-01-05T05:38:44.990Z,95.871
2024-01-05T05:39:45.406Z,95.843
2024-01-05T05:40:44.680Z,95.720
2024-01-05T05:41:45.741Z,95.730
2024-01-05T05:42:45.445Z,95.692
2024-01-05T05:43:44.694Z,95.759
2024-01-05T05:44:44.903Z,95.720
2024-01-05T05:45:45.462Z,95.703
2024-01-05T05:46:44.691Z,95.808
2024-01-05T05:47:45.720Z,95.787
2024-01-05T05:48:46.055Z,95.661
2024-01-05T05:49:45.291Z,95.642
2024-01-05T05:53:44.399Z,95.654
2024-01-05T05:54:44.995Z,95.562
2024-01-05T05:55:45.158Z,95.564
2024-01-05T05:56:44.372Z,95.463
2024-01-05T05:57:44.965Z,95.492
2024-01-05T05:58:45.390Z,95.564
2024-01-05T05:59:44.657Z,95.583
2024-01-05T06:00:45.316Z,95.537
2024-01-05T06:01:45.437Z,95.522
2024-01-05T06:02:44.923Z,95.520
2024-01-05T06:03:45.617Z,95.558
2024-01-05T06:04:45.251Z,95.619
2024-01-05T06:05:44.777Z,95.617
2024-01-05T06:06:45.497Z,95.534
2024-01-05T06:08:45.007Z,95.600
2024-01-05T06:09:45.582Z,95.566
2024-01-05T06:10:44.834Z,95.429
2024-01-05T06:11:45.819Z,95.572
2024-01-05T06:12:44.544Z,95.408
2024-01-05T06:13:47.866Z,95.476
2024-01-05T06:14:44.980Z,95.539
2024-01-05T06:15:45.502Z,95.658
2024-01-05T06:16:44.808Z,95.551
2024-01-05T06:17:45.351Z,95.625
2024-01-05T06:18:45.604Z,95.673
2024-01-05T06:19:45.625Z,95.812
2024-01-05T06:20:45.216Z,95.865
2024-01-05T06:21:44.654Z,95.946
2024-01-05T06:22:44.852Z,95.825
2024-01-05T06:23:45.288Z,95.888
2024-01-05T06:24:44.933Z,95.822
2024-01-05T06:25:45.218Z,95.781
2024-01-05T06:26:44.512Z,95.814
2024-01-05T06:27:49.189Z,95.804
2024-01-05T06:28:44.400Z,95.738
2024-01-05T06:29:44.723Z,95.783
2024-01-05T06:30:45.575Z,95.772
2024-01-05T06:31:46.325Z,95.757
2024-01-05T06:32:45.046Z,95.793
2024-01-05T06:33:45.324Z,95.749
2024-01-05T06:34:45.830Z,95.814
2024-01-05T06:35:45.272Z,95.776
2024-01-05T06:36:44.623Z,95.764
2024-01-05T06:37:45.074Z,95.753
2024-01-05T06:38:45.337Z,95.753
2024-01-05T06:39:44.827Z,95.598
2024-01-05T06:40:45.057Z,95.583
2024-01-05T06:41:46.025Z,95.638
2024-01-05T06:42:44.858Z,95.766
2024-01-05T06:43:44.387Z,95.703
2024-01-05T06:44:44.661Z,95.772
2024-01-05T06:45:45.274Z,95.844
2024-01-05T06:46:44.563Z,95.759
2024-01-05T06:47:44.981Z,95.808
2024-01-05T06:48:45.352Z,95.846
2024-01-05T06:49:46.081Z,95.852
2024-01-05T06:50:45.469Z,95.925
2024-01-05T06:51:46.537Z,95.896
2024-01-05T06:52:44.335Z,95.804
2024-01-05T06:53:44.571Z,95.848
2024-01-05T06:54:44.943Z,95.766
2024-01-05T06:55:45.185Z,95.881
2024-01-05T06:56:44.462Z,95.841
2024-01-05T06:57:44.822Z,95.871
2024-01-05T06:58:45.029Z,95.884
2024-01-05T06:59:45.297Z,95.806
2024-01-05T07:00:45.172Z,95.799
2024-01-05T07:01:45.104Z,95.745
2024-01-05T07:04:44.923Z,95.661
2024-01-05T07:05:45.544Z,95.570
2024-01-05T07:06:45.268Z,95.516
2024-01-05T07:07:44.486Z,95.497
2024-01-05T07:08:44.740Z,95.383
2024-01-05T07:09:45.171Z,95.339
2024-01-05T07:10:44.462Z,95.339
2024-01-05T07:11:45.806Z,95.228
2024-01-05T07:12:45.288Z,95.253
2024-01-05T07:13:44.760Z,95.299
2024-01-05T07:14:46.425Z,95.280
2024-01-05T07:15:44.934Z,95.183
2024-01-05T07:16:45.349Z,95.232
2024-01-05T07:17:44.880Z,95.202
2024-01-05T07:18:45.186Z,95.200
2024-01-05T07:21:45.910Z,95.038
2024-01-05T07:22:44.334Z,95.026
2024-01-05T07:23:44.594Z,95.070
2024-01-05T07:24:44.931Z,95.043
2024-01-05T07:26:44.860Z,94.986
2024-01-05T07:27:45.134Z,94.942
2024-01-05T07:28:44.347Z,94.977
2024-01-05T07:29:44.592Z,94.935
2024-01-05T07:30:45.029Z,94.883
2024-01-05T07:31:44.952Z,94.786
2024-01-05T07:32:45.460Z,94.734
2024-01-05T07:33:45.345Z,94.727
2024-01-05T07:35:44.352Z,94.702
2024-01-05T07:36:44.865Z,94.668
2024-01-05T07:37:45.078Z,94.544
2024-01-05T07:38:45.378Z,94.467
2024-01-05T07:39:44.708Z,94.484
2024-01-05T07:40:45.040Z,94.498
2024-01-05T07:41:45.923Z,94.484
2024-01-05T07:42:44.659Z,94.483
2024-01-05T07:43:44.888Z,94.408
2024-01-05T07:44:45.073Z,94.448
2024-01-05T07:45:45.617Z,94.368
2024-01-05T07:46:44.833Z,94.286
2024-01-05T07:47:45.517Z,94.368
2024-01-05T07:48:45.711Z,94.340
2024-01-05T07:49:44.725Z,94.286
2024-01-05T07:50:45.293Z,94.059
2024-01-05T07:51:49.072Z,94.029
2024-01-05T07:53:45.171Z,93.964
2024-01-05T07:54:44.637Z,93.977
2024-01-05T07:55:44.962Z,93.781
2024-01-05T07:56:45.562Z,93.683
2024-01-05T07:57:48.736Z,93.517
2024-01-05T07:58:44.391Z,93.489
2024-01-05T07:59:44.644Z,93.470
2024-01-05T08:00:45.688Z,93.474
2024-01-05T08:01:44.984Z,93.344
2024-01-05T08:03:45.320Z,93.126
2024-01-05T08:04:44.948Z,93.142
2024-01-05T08:05:50.154Z,93.067
2024-01-05T08:06:45.462Z,92.926
2024-01-05T08:07:44.940Z,92.943
2024-01-05T08:08:45.149Z,92.964
2024-01-05T08:09:44.876Z,92.808
2024-01-05T08:10:45.230Z,92.779
2024-01-05T08:11:45.600Z,92.743
2024-01-05T08:12:45.373Z,92.556
2024-01-05T08:13:44.710Z,92.705
2024-01-05T08:14:44.943Z,92.835
2024-01-05T08:15:45.742Z,92.686
2024-01-05T08:16:45.112Z,92.627
2024-01-05T08:17:44.572Z,92.812
2024-01-05T08:18:45.486Z,92.621
2024-01-05T08:19:45.736Z,92.537
2024-01-05T08:20:45.169Z,92.548
2024-01-05T08:21:45.022Z,92.402
2024-01-05T08:23:44.960Z,92.348
2024-01-05T08:24:45.665Z,92.440
2024-01-05T08:25:45.507Z,92.312
2024-01-05T08:26:44.782Z,92.314
2024-01-05T08:27:45.366Z,92.434
2024-01-05T08:28:44.684Z,92.163
2024-01-05T08:29:44.940Z,92.199
2024-01-05T08:30:45.715Z,91.700
2024-01-05T08:31:45.998Z,92.016
2024-01-05T08:34:45.498Z,91.967
2024-01-05T08:36:45.465Z,91.929
2024-01-05T08:37:45.336Z,91.944
2024-01-05T08:38:44.562Z,91.927
2024-01-05T08:39:44.943Z,91.953
2024-01-05T08:40:45.371Z,91.911
2024-01-05T08:41:44.679Z,91.780
2024-01-05T08:42:45.200Z,91.795
2024-01-05T08:43:45.164Z,91.637
2024-01-05T08:44:44.643Z,91.354
2024-01-05T08:45:45.589Z,91.412
2024-01-05T08:46:45.163Z,91.505
2024-01-05T08:48:45.284Z,91.354
2024-01-05T08:49:44.978Z,91.314
2024-01-05T08:50:44.353Z,91.221
2024-01-05T08:51:44.941Z,91.038
2024-01-05T08:52:45.269Z,91.078
2024-01-05T08:53:44.543Z,91.086
2024-01-05T08:54:46.793Z,90.672
2024-01-05T08:55:44.622Z,91.028
2024-01-05T08:56:44.911Z,90.565
2024-01-05T08:57:45.466Z,90.649
2024-01-05T08:58:44.804Z,90.431
2024-01-05T08:59:45.094Z,90.584
2024-01-05T09:00:44.938Z,90.344
2024-01-05T09:01:48.638Z,90.378
2024-01-05T09:02:45.009Z,90.025
2024-01-05T09:04:44.717Z,90.181
2024-01-05T09:05:45.424Z,89.903
2024-01-05T09:06:45.301Z,89.495
2024-01-05T09:07:49.022Z,89.497
2024-01-05T09:08:45.258Z,89.066
2024-01-05T09:09:44.645Z,89.430
2024-01-05T09:10:45.011Z,89.367
2024-01-05T09:11:45.185Z,88.986
2024-01-05T09:12:44.621Z,88.814
2024-01-05T09:13:45.317Z,89.054
2024-01-05T09:14:44.580Z,88.903
2024-01-05T09:15:44.999Z,88.726
2024-01-05T09:16:44.675Z,88.392
2024-01-05T09:17:45.048Z,87.729
2024-01-05T09:18:45.984Z,88.284
2024-01-05T09:19:45.059Z,88.684
2024-01-05T09:20:44.567Z,88.438
2024-01-05T09:21:45.110Z,88.558
2024-01-05T09:24:45.151Z,87.944
2024-01-05T09:25:49.497Z,88.041
2024-01-05T09:26:44.804Z,87.593
2024-01-05T09:27:45.545Z,88.131
2024-01-05T09:28:44.910Z,87.574
2024-01-05T09:29:45.168Z,87.633
2024-01-05T09:30:44.741Z,87.626
2024-01-05T09:31:45.433Z,87.854
2024-01-05T09:32:45.014Z,87.256
2024-01-05T09:33:45.101Z,86.845
2024-01-05T09:34:45.334Z,87.147
2024-01-05T09:37:44.557Z,86.779
2024-01-05T09:38:44.802Z,86.798
2024-01-05T09:39:45.495Z,86.433
2024-01-05T09:40:44.894Z,87.137
2024-01-05T09:41:45.170Z,86.309
2024-01-05T09:42:44.609Z,86.517
2024-01-05T09:43:45.142Z,86.382
2024-01-05T09:44:44.443Z,85.182
2024-01-05T09:45:44.860Z,85.289
2024-01-05T09:46:44.317Z,85.678
2024-01-05T09:47:48.278Z,85.602
2024-01-05T09:48:58.076Z,85.806
2024-01-05T09:49:45.101Z,85.018
2024-01-05T09:50:45.453Z,85.402
2024-01-05T09:51:45.071Z,84.640
2024-01-05T09:52:44.342Z,84.894
2024-01-05T09:53:49.027Z,83.946
2024-01-05T09:54:45.342Z,84.433
2024-01-05T09:56:45.004Z,84.043
2024-01-05T09:57:45.738Z,84.814
2024-01-05T09:58:45.037Z,84.089
2024-01-05T09:59:49.373Z,85.131
2024-01-05T10:00:44.742Z,83.584
2024-01-05T10:03:45.613Z,82.949
2024-01-05T10:04:45.322Z,83.933
2024-01-05T10:06:45.276Z,82.918
2024-01-05T10:07:44.713Z,83.195
2024-01-05T10:08:45.038Z,83.576
2024-01-05T10:09:45.931Z,83.893
2024-01-05T10:10:45.257Z,82.220
2024-01-05T10:11:47.872Z,82.056
2024-01-05T10:12:45.623Z,82.140
2024-01-05T10:13:44.895Z,82.123
2024-01-05T10:14:45.173Z,81.211
2024-01-05T10:16:44.834Z,81.966
2024-01-05T10:17:45.466Z,81.615
2024-01-05T10:18:46.036Z,80.723
2024-01-05T10:19:45.044Z,80.332
2024-01-05T10:20:44.675Z,79.679
2024-01-05T10:21:45.284Z,79.851
2024-01-05T10:24:44.966Z,79.683
2024-01-05T10:25:45.371Z,79.670
2024-01-05T10:26:44.581Z,79.657
2024-01-05T10:27:45.186Z,78.569
2024-01-05T10:28:44.720Z,77.810
2024-01-05T10:29:45.664Z,78.348
2024-01-05T10:30:44.806Z,78.478
2024-01-05T10:31:45.474Z,79.140
2024-01-05T10:32:44.885Z,78.260
2024-01-05T10:33:45.974Z,78.604
2024-01-05T10:34:45.271Z,78.474
2024-01-05T10:35:48.450Z,76.908
2024-01-05T10:36:44.885Z,77.961
2024-01-05T10:37:45.378Z,78.306
2024-01-05T10:38:44.589Z,77.980
2024-01-05T10:39:45.071Z,77.425
2024-01-05T10:40:44.708Z,77.965
2024-01-05T10:41:48.508Z,77.955
2024-01-05T10:42:45.328Z,78.775
2024-01-05T10:43:44.624Z,78.062
2024-01-05T10:44:44.962Z,77.988
2024-01-05T10:45:45.830Z,78.079
2024-01-05T10:46:44.573Z,78.136
2024-01-05T10:47:47.851Z,78.770
2024-01-05T10:48:44.887Z,78.913
2024-01-05T10:49:45.030Z,78.695
2024-01-05T10:50:45.263Z,79.777
2024-01-05T10:51:44.907Z,78.834
2024-01-05T10:52:45.221Z,79.506
2024-01-05T10:53:44.629Z,79.611
2024-01-05T10:54:45.215Z,79.809
2024-01-05T10:55:44.654Z,79.189
2024-01-05T10:56:44.902Z,79.327
2024-01-05T10:57:45.891Z,79.195
2024-01-05T10:58:45.188Z,79.531
2024-01-05T10:59:44.436Z,78.928
2024-01-05T11:00:45.164Z,79.636
2024-01-05T11:04:44.790Z,79.597
2024-01-05T11:05:45.711Z,79.460
2024-01-05T11:06:45.405Z,79.004
2024-01-05T11:07:45.170Z,79.266
2024-01-05T11:08:44.499Z,79.472
2024-01-05T11:09:45.138Z,79.491
2024-01-05T11:10:44.624Z,79.565
2024-01-05T11:11:44.849Z,79.847
2024-01-05T11:12:45.668Z,79.792
2024-01-05T11:13:45.361Z,79.946
2024-01-05T11:14:44.732Z,79.945
2024-01-05T11:15:45.362Z,79.672
2024-01-05T11:16:44.689Z,79.966
2024-01-05T11:17:45.296Z,79.956
2024-01-05T11:18:45.741Z,79.796
2024-01-05T11:19:45.068Z,80.200
2024-01-05T11:20:45.158Z,80.307
2024-01-05T11:21:45.681Z,80.675
2024-01-05T11:22:44.907Z,80.130
2024-01-05T11:23:45.281Z,80.074
2024-01-05T11:24:44.839Z,80.093
2024-01-05T11:25:44.462Z,79.948
2024-01-05T11:26:44.770Z,80.328
2024-01-05T11:27:45.511Z,80.309
2024-01-05T11:28:45.028Z,80.337
2024-01-05T11:29:45.346Z,80.252
2024-01-05T11:30:45.309Z,80.494
2024-01-05T11:31:45.455Z,80.191
2024-01-05T11:32:44.950Z,80.673
2024-01-05T11:33:45.906Z,80.349
2024-01-05T11:34:45.442Z,80.234
2024-01-05T11:35:47.938Z,80.328
2024-01-05T11:37:44.777Z,80.673
2024-01-05T11:38:44.989Z,80.143
2024-01-05T11:39:45.766Z,80.440
2024-01-05T11:40:46.217Z,80.757
2024-01-05T11:41:44.763Z,81.200
2024-01-05T11:42:45.697Z,80.673
2024-01-05T11:43:45.125Z,80.894
2024-01-05T11:44:44.437Z,80.744
2024-01-05T11:45:45.221Z,80.435
2024-01-05T11:46:45.203Z,80.486
2024-01-05T11:47:44.985Z,81.276
2024-01-05T11:48:47.256Z,80.904
2024-01-05T11:49:46.086Z,81.247
2024-01-05T11:50:44.736Z,81.186
2024-01-05T11:51:45.301Z,81.314
2024-01-05T11:54:44.807Z,81.047
2024-01-05T11:55:45.098Z,80.202
2024-01-05T11:56:45.352Z,79.931
2024-01-05T11:57:44.740Z,80.454
2024-01-05T11:58:45.564Z,80.376
2024-01-05T11:59:45.933Z,80.183
2024-01-05T12:00:45.801Z,80.374
2024-01-05T12:01:44.664Z,80.439
2024-01-05T12:02:44.918Z,80.276
2024-01-05T12:03:46.504Z,79.901
2024-01-05T12:04:45.545Z,80.141
2024-01-05T12:06:45.245Z,80.122
2024-01-05T12:07:44.503Z,80.143
2024-01-05T12:08:45.799Z,79.645
2024-01-05T12:09:45.287Z,80.112
2024-01-05T12:10:44.500Z,80.065
2024-01-05T12:11:44.750Z,79.845
2024-01-05T12:12:45.431Z,79.931
2024-01-05T12:13:45.208Z,80.217
2024-01-05T12:16:00.851Z,80.101
2024-01-05T12:17:48.406Z,80.555
2024-01-05T12:18:50.847Z,79.908
2024-01-05T12:19:45.360Z,80.309
2024-01-05T12:20:45.209Z,80.450
2024-01-05T12:21:44.727Z,80.069
2024-01-05T12:22:45.212Z,80.292
2024-01-05T12:23:47.621Z,80.294
2024-01-05T12:25:44.562Z,80.202
2024-01-05T12:26:44.872Z,79.838
2024-01-05T12:27:45.767Z,80.414
2024-01-05T12:28:45.213Z,79.954
2024-01-05T12:29:44.505Z,80.595
2024-01-05T12:30:48.981Z,80.429
2024-01-05T12:31:44.741Z,80.021
2024-01-05T12:32:45.388Z,80.160
2024-01-05T12:33:45.765Z,79.073
2024-01-05T12:34:45.825Z,79.946
2024-01-05T12:35:45.189Z,79.466
2024-01-05T12:36:44.565Z,79.195
2024-01-05T12:37:45.004Z,79.792
2024-01-05T12:38:45.363Z,79.203
2024-01-05T12:39:44.782Z,79.472
2024-01-05T12:40:45.285Z,79.527
2024-01-05T12:41:44.722Z,79.655
2024-01-05T12:42:45.454Z,79.916
2024-01-05T12:43:44.865Z,79.845
2024-01-05T12:44:45.170Z,79.626
2024-01-05T12:45:44.773Z,80.038
2024-01-05T12:46:45.356Z,79.916
2024-01-05T12:47:44.988Z,79.887
2024-01-05T12:48:45.708Z,79.849
2024-01-05T12:50:45.107Z,79.588
2024-01-05T12:51:45.614Z,79.214
2024-01-05T12:52:45.103Z,79.573
2024-01-05T12:53:45.363Z,80.439
2024-01-05T12:54:44.945Z,79.565
2024-01-05T12:55:45.363Z,79.269
2024-01-05T12:56:44.578Z,79.714
2024-01-05T12:57:45.032Z,79.634
2024-01-05T12:58:45.809Z,79.258
2024-01-05T12:59:45.065Z,78.968
2024-01-05T13:00:45.673Z,79.002
2024-01-05T13:01:45.263Z,79.658
2024-01-05T13:02:45.657Z,80.223
2024-01-05T13:03:45.381Z,80.221
2024-01-05T13:04:50.038Z,80.179
2024-01-05T13:05:44.573Z,80.362
2024-01-05T13:06:45.390Z,79.851
2024-01-05T13:08:45.244Z,79.903
2024-01-05T13:09:45.113Z,79.893
2024-01-05T13:10:46.596Z,80.063
2024-01-05T13:11:44.824Z,80.625
2024-01-05T13:12:45.335Z,80.305
2024-01-05T13:13:44.893Z,79.761
2024-01-05T13:14:44.417Z,79.525
2024-01-05T13:15:44.830Z,79.782
2024-01-05T13:16:45.445Z,79.887
2024-01-05T13:17:44.660Z,79.838
2024-01-05T13:18:45.910Z,79.906
2024-01-05T13:19:45.968Z,80.175
2024-01-05T13:20:44.423Z,79.847
2024-01-05T13:21:45.041Z,80.042
2024-01-05T13:22:44.554Z,79.784
2024-01-05T13:23:45.356Z,79.636
2024-01-05T13:24:50.237Z,80.101
2024-01-05T13:27:44.960Z,80.183
2024-01-05T13:28:45.252Z,80.009
2024-01-05T13:31:45.990Z,80.006
2024-01-05T13:32:45.296Z,80.334
2024-01-05T13:33:45.614Z,80.328
2024-01-05T13:34:46.303Z,80.633
2024-01-05T13:35:44.922Z,80.236
2024-01-05T13:36:45.446Z,80.398
2024-01-05T13:37:44.796Z,80.255
2024-01-05T13:38:45.090Z,80.814
2024-01-05T13:39:46.046Z,80.494
2024-01-05T13:40:44.333Z,80.788
2024-01-05T13:41:44.597Z,80.803
2024-01-05T13:42:45.307Z,81.158
2024-01-05T13:43:44.640Z,80.803
2024-01-05T13:44:44.973Z,80.694
2024-01-05T13:45:45.413Z,80.978
2024-01-05T13:46:44.791Z,80.288